Arcadia, Oregon
Current Conditions -  °F | °C
As of 4:53 AM on Friday 31 Oct 2014 (Local Time) from KONO Reporting Station
Clear Clear  
Wind Chill: 42°   Ceiling: Unl
Heat Index: 44°   Visibility: 10mi
Dew Point: 39°   Wind: 5mph
Humidity: 82%   Direction: 10°N
Pressure: 29.82"   Gusts: NA
Location:  43.754°N, 117.202°W
Report Text: KONO 311053Z AUTO 01004KT 10SM CLR 07/04 A2982 RMK AO2 SLP097 T00670039
Loading
Personal Weather Stations






























Interactive Weather Map
Tropical Storm Tracking
New forecast layout! Learn more

10-Day Weather Forecast

Advertisements
Track Severe Weather on mobile